Time;durP1;ratioP1;P1;durP2;ratioP2;P2;SDS_P1;SDS_P2;PMS_P1;PMS_P2;Temp;Humidity;BMP_temperature;BMP_pressure;BME280_temperature;BME280_humidity;BME280_pressure;Samples;Min_cycle;Max_cycle;Signal;HPM_P1;HPM_P2
2023/07/07 00:01:31;;;;;;;7.77;4.10;;;;;;;12.49;97.04;98133.50;6238374;28;20583;-39
2023/07/07 00:04:34;;;;;;;6.23;4.80;;;;;;;12.46;97.10;98126.78;6245948;28;20231;-39
2023/07/07 00:07:36;;;;;;;6.00;4.50;;;;;;;12.41;96.87;98129.38;6240532;28;20282;-44
2023/07/07 00:10:38;;;;;;;6.80;4.33;;;;;;;12.27;97.46;98118.22;6240877;28;20643;-40
2023/07/07 00:13:40;;;;;;;5.63;4.67;;;;;;;12.36;97.30;98124.78;6240393;28;20243;-40
2023/07/07 00:16:43;;;;;;;6.17;4.17;;;;;;;12.40;97.46;98130.41;6240429;28;20583;-39
2023/07/07 00:19:47;;;;;;;4.80;4.27;;;;;;;12.43;97.25;98129.16;6243671;28;20766;-42
2023/07/07 00:22:49;;;;;;;5.50;4.00;;;;;;;12.47;97.43;98135.63;6238859;28;20220;-41
2023/07/07 00:25:58;;;;;;;4.50;3.70;;;;;;;12.48;97.24;98137.25;6241040;28;20232;-40
2023/07/07 00:29:01;;;;;;;7.73;4.00;;;;;;;12.14;97.23;98094.47;6238961;28;20273;-41
2023/07/07 00:32:03;;;;;;;4.93;4.27;;;;;;;12.38;97.05;98135.22;6242676;28;20309;-40
2023/07/07 00:35:06;;;;;;;6.70;4.30;;;;;;;12.32;96.43;98147.69;6236769;28;20242;-41
2023/07/07 00:38:09;;;;;;;7.83;4.37;;;;;;;12.26;96.34;98142.47;6243501;28;20227;-40
2023/07/07 00:41:11;;;;;;;5.80;4.03;;;;;;;12.20;96.88;98141.56;6240603;28;20235;-39
2023/07/07 00:44:13;;;;;;;5.63;4.57;;;;;;;12.16;96.75;98143.09;6245699;28;20414;-41
2023/07/07 00:47:17;;;;;;;8.87;4.20;;;;;;;12.11;97.17;98149.16;6243759;28;20590;-42
2023/07/07 00:50:23;;;;;;;6.93;4.87;;;;;;;12.09;96.74;98153.13;6247050;28;20230;-40
2023/07/07 00:53:26;;;;;;;10.27;4.50;;;;;;;12.04;97.04;98150.38;6251480;28;20243;-41
2023/07/07 00:56:36;;;;;;;5.90;3.97;;;;;;;12.00;97.29;98147.38;6251710;28;20238;-42
2023/07/07 00:59:43;;;;;;;5.13;4.10;;;;;;;12.00;97.63;98155.38;6246040;28;20254;-42
2023/07/07 01:02:53;;;;;;;7.20;4.57;;;;;;;11.96;97.39;98148.06;6244061;28;20241;-44
2023/07/07 01:05:59;;;;;;;5.07;4.10;;;;;;;11.94;97.63;98152.84;6248635;28;20249;-42
2023/07/07 01:09:06;;;;;;;5.10;4.17;;;;;;;11.88;97.42;98151.97;6244252;28;20232;-43
2023/07/07 01:12:12;;;;;;;6.30;4.60;;;;;;;11.90;97.75;98159.72;6246922;28;20219;-40
2023/07/07 01:15:14;;;;;;;4.13;3.73;;;;;;;11.93;97.56;98159.25;6244474;28;20253;-40
2023/07/07 01:18:55;;;;;;;8.37;3.87;;;;;;;11.96;97.69;98169.44;6244910;28;20229;-42
2023/07/07 01:22:25;;;;;;;4.80;4.03;;;;;;;11.88;97.28;98166.13;6247790;28;20281;-42
2023/07/07 01:25:56;;;;;;;5.33;4.37;;;;;;;11.87;97.28;98177.84;6270163;28;20284;-41
2023/07/07 01:29:04;;;;;;;7.20;4.13;;;;;;;11.87;97.68;98169.84;6283033;28;20377;-41
2023/07/07 01:32:29;;;;;;;8.47;4.27;;;;;;;11.82;97.49;98187.59;6267096;28;20262;-41
2023/07/07 01:35:31;;;;;;;7.40;4.10;;;;;;;11.70;97.34;98176.13;6265646;28;20267;-42
2023/07/07 01:38:39;;;;;;;9.13;4.53;;;;;;;11.69;97.45;98179.84;6272606;28;20852;-42
2023/07/07 01:42:35;;;;;;;5.67;4.47;;;;;;;11.63;97.03;98178.94;6262929;28;20235;-42
2023/07/07 01:45:48;;;;;;;5.27;3.87;;;;;;;11.55;97.31;98182.75;6224852;28;20348;-41
2023/07/07 01:49:14;;;;;;;6.37;4.43;;;;;;;11.49;97.61;98175.72;6212177;28;20588;-41
2023/07/07 01:52:30;;;;;;;5.43;4.00;;;;;;;11.48;98.23;98176.75;6218129;28;20271;-42
2023/07/07 01:55:37;;;;;;;6.77;4.63;;;;;;;11.48;98.33;98182.09;6202207;28;20236;-41
2023/07/07 01:58:42;;;;;;;8.83;4.20;;;;;;;11.48;98.04;98176.75;6197994;28;20286;-41
2023/07/07 02:01:45;;;;;;;4.77;3.77;;;;;;;11.49;98.04;98182.91;6204174;28;20669;-42
2023/07/07 02:04:47;;;;;;;7.17;4.20;;;;;;;11.33;97.81;98155.91;6202297;28;20259;-41
2023/07/07 02:07:50;;;;;;;5.73;4.47;;;;;;;11.58;98.20;98194.84;6188917;28;20278;-40
2023/07/07 02:10:52;;;;;;;7.43;4.20;;;;;;;11.62;98.10;98193.28;6203914;28;20275;-41
2023/07/07 02:13:54;;;;;;;4.57;3.87;;;;;;;11.62;98.08;98191.47;6187831;28;20287;-48
2023/07/07 02:16:56;;;;;;;5.87;4.37;;;;;;;11.59;97.84;98197.25;6232111;28;20232;-39
2023/07/07 02:19:59;;;;;;;6.50;4.10;;;;;;;11.60;97.75;98209.56;6244578;28;20601;-40
2023/07/07 02:23:02;;;;;;;4.67;3.57;;;;;;;11.44;97.98;98177.47;6245942;28;20238;-40
2023/07/07 02:26:04;;;;;;;6.33;4.50;;;;;;;11.63;97.64;98202.94;6234322;28;20237;-40
2023/07/07 02:29:06;;;;;;;13.77;4.90;;;;;;;11.59;97.92;98212.47;6241684;28;20255;-40
2023/07/07 02:32:08;;;;;;;7.07;4.83;;;;;;;11.36;98.67;98184.75;6244851;28;20227;-40
2023/07/07 02:35:13;;;;;;;6.13;4.63;;;;;;;11.47;98.39;98209.00;6241866;28;20608;-40
2023/07/07 02:38:16;;;;;;;5.47;4.17;;;;;;;11.43;98.64;98203.34;6245772;28;20244;-40
2023/07/07 02:41:19;;;;;;;7.50;4.33;;;;;;;11.34;98.89;98199.41;6241560;28;20231;-41
2023/07/07 02:44:21;;;;;;;6.87;4.30;;;;;;;11.39;98.90;98207.50;6240664;28;20309;-41
2023/07/07 02:47:23;;;;;;;6.27;4.27;;;;;;;11.40;99.08;98211.78;6244418;28;20236;-42
2023/07/07 02:50:26;;;;;;;6.57;4.73;;;;;;;11.43;99.03;98211.34;6245786;28;20238;-40
2023/07/07 02:53:31;;;;;;;5.47;4.50;;;;;;;11.41;99.28;98209.94;6229883;28;20739;-40
2023/07/07 02:56:33;;;;;;;5.50;3.93;;;;;;;11.37;99.30;98221.06;6250833;28;20445;-41
2023/07/07 02:59:36;;;;;;;6.13;4.40;;;;;;;11.33;99.39;98216.44;6248032;28;20238;-41
2023/07/07 03:02:38;;;;;;;4.90;3.97;;;;;;;11.40;99.11;98229.66;6246045;28;20302;-42
2023/07/07 03:05:41;;;;;;;5.63;4.17;;;;;;;11.43;99.68;98224.69;6239883;28;20235;-39
2023/07/07 03:08:44;;;;;;;7.07;4.50;;;;;;;11.43;99.02;98231.84;6243556;28;20242;-39
2023/07/07 03:11:48;;;;;;;6.43;4.60;;;;;;;11.35;99.25;98236.50;6243708;28;20227;-40
2023/07/07 03:14:57;;;;;;;5.47;4.37;;;;;;;11.24;99.31;98215.19;6241700;28;20234;-54
2023/07/07 03:17:59;;;;;;;9.03;4.27;;;;;;;11.27;99.51;98236.03;6240942;28;20235;-45
2023/07/07 03:21:03;;;;;;;5.97;4.23;;;;;;;11.30;99.51;98236.38;6237285;28;20242;-43
2023/07/07 03:24:07;;;;;;;6.43;4.30;;;;;;;11.32;99.02;98238.81;6236735;28;20211;-51
2023/07/07 03:27:10;;;;;;;6.60;4.57;;;;;;;11.30;99.60;98243.59;6246186;28;20285;-42
2023/07/07 03:30:16;;;;;;;7.37;4.30;;;;;;;11.21;99.37;98235.09;6243550;28;20238;-54
2023/07/07 03:33:31;;;;;;;4.93;4.30;;;;;;;11.19;99.80;98234.53;6242344;28;20230;-54
2023/07/07 03:36:35;;;;;;;7.97;4.50;;;;;;;11.16;99.62;98235.00;6246338;28;20223;-54
2023/07/07 03:39:39;;;;;;;6.43;4.63;;;;;;;11.16;99.51;98244.84;6243184;28;20215;-54
2023/07/07 03:42:41;;;;;;;4.60;4.10;;;;;;;11.17;100.00;98243.81;6238543;28;20227;-53
2023/07/07 03:45:46;;;;;;;6.00;4.53;;;;;;;11.20;100.00;98254.81;6240893;28;20305;-54
2023/07/07 03:48:50;;;;;;;6.60;4.37;;;;;;;11.25;100.00;98256.81;6248880;28;20764;-54
2023/07/07 03:51:53;;;;;;;4.70;4.20;;;;;;;11.23;100.00;98249.03;6239511;28;20239;-54
2023/07/07 03:54:55;;;;;;;7.33;4.47;;;;;;;11.34;100.00;98260.75;6241190;28;20243;-53
2023/07/07 03:57:57;;;;;;;6.13;4.37;;;;;;;11.15;100.00;98238.72;6242076;28;20266;-54
2023/07/07 04:01:05;;;;;;;8.57;5.23;;;;;;;11.30;100.00;98270.25;6239185;28;20231;-54
2023/07/07 04:04:07;;;;;;;7.93;5.10;;;;;;;11.29;99.99;98263.31;6241220;28;20626;-53
2023/07/07 04:07:10;;;;;;;7.33;4.40;;;;;;;11.28;100.00;98261.66;6241246;28;20239;-54
2023/07/07 04:10:12;;;;;;;7.50;5.07;;;;;;;11.26;100.00;98267.22;6245890;28;20244;-54
2023/07/07 04:13:14;;;;;;;7.67;5.20;;;;;;;11.22;100.00;98249.25;6242179;28;20243;-53
2023/07/07 04:16:20;;;;;;;7.30;4.63;;;;;;;11.29;100.00;98272.13;6239126;28;20245;-54
2023/07/07 04:19:22;;;;;;;7.40;4.97;;;;;;;11.25;100.00;98262.94;6241878;28;20239;-54
2023/07/07 04:22:25;;;;;;;7.23;4.33;;;;;;;11.11;100.00;98238.34;6240826;28;20332;-54
2023/07/07 04:25:27;;;;;;;5.97;4.47;;;;;;;11.40;100.00;98281.16;6239596;28;20333;-54
2023/07/07 04:28:32;;;;;;;4.73;3.77;;;;;;;11.41;100.00;98277.44;6238419;28;20268;-54
2023/07/07 04:31:34;;;;;;;9.73;5.00;;;;;;;11.43;100.00;98285.19;6239915;28;20246;-54
2023/07/07 04:34:36;;;;;;;5.07;4.23;;;;;;;11.17;100.00;98239.28;6239917;28;20231;-55
2023/07/07 04:37:38;;;;;;;6.37;4.03;;;;;;;11.56;100.00;98288.44;6245780;28;20227;-54
2023/07/07 04:40:40;;;;;;;5.60;4.60;;;;;;;11.53;100.00;98285.47;6241981;28;20235;-54
2023/07/07 04:43:45;;;;;;;4.67;4.17;;;;;;;11.65;100.00;98298.78;6237630;28;20238;-54
2023/07/07 04:46:47;;;;;;;6.37;4.30;;;;;;;11.67;100.00;98296.69;6241484;28;20380;-54
2023/07/07 04:49:49;;;;;;;6.73;4.90;;;;;;;11.68;100.00;98298.31;6238809;28;20234;-54
2023/07/07 04:52:52;;;;;;;5.20;4.37;;;;;;;11.69;100.00;98295.41;6241092;28;20713;-54
2023/07/07 04:55:58;;;;;;;5.60;4.77;;;;;;;11.73;100.00;98306.44;6241533;28;20232;-54
2023/07/07 04:59:00;;;;;;;8.97;4.67;;;;;;;11.73;100.00;98307.25;6242191;28;20255;-54
2023/07/07 05:02:03;;;;;;;6.87;4.97;;;;;;;11.78;100.00;98303.88;6237881;28;20227;-54
2023/07/07 05:05:06;;;;;;;5.20;4.70;;;;;;;11.82;100.00;98305.03;6239974;28;20238;-54
2023/07/07 05:08:08;;;;;;;6.57;5.03;;;;;;;11.66;100.00;98271.84;6240084;28;20231;-54
2023/07/07 05:11:12;;;;;;;6.63;5.27;;;;;;;11.94;100.00;98305.03;6241077;28;20232;-54
2023/07/07 05:14:14;;;;;;;6.00;4.90;;;;;;;11.97;100.00;98310.75;6243529;28;20801;-54
2023/07/07 05:17:16;;;;;;;8.33;5.17;;;;;;;12.01;100.00;98306.53;6240256;28;20589;-54
2023/07/07 05:20:19;;;;;;;9.20;5.00;;;;;;;12.09;100.00;98311.50;6241001;28;20229;-54
2023/07/07 05:23:21;;;;;;;7.27;5.20;;;;;;;12.18;100.00;98311.16;6241098;28;20708;-54
2023/07/07 05:26:28;;;;;;;7.03;5.20;;;;;;;12.27;100.00;98309.75;6239512;28;20320;-55
2023/07/07 05:29:31;;;;;;;7.10;5.10;;;;;;;12.34;100.00;98303.19;6244346;28;20867;-55
2023/07/07 05:32:33;;;;;;;5.70;4.53;;;;;;;12.41;100.00;98305.72;6243210;28;20605;-55
2023/07/07 05:35:35;;;;;;;5.37;4.73;;;;;;;12.49;100.00;98308.03;6244791;28;20256;-54
2023/07/07 05:38:39;;;;;;;8.63;4.43;;;;;;;12.60;100.00;98317.84;6246197;28;20235;-54
2023/07/07 05:41:41;;;;;;;6.13;4.70;;;;;;;12.71;100.00;98320.69;6242370;28;20239;-54
2023/07/07 05:44:43;;;;;;;6.40;4.63;;;;;;;12.80;100.00;98314.72;6245072;28;20242;-53
2023/07/07 05:47:45;;;;;;;5.93;4.87;;;;;;;12.93;100.00;98321.66;6246779;28;20231;-54
2023/07/07 05:50:48;;;;;;;5.87;4.73;;;;;;;13.05;100.00;98325.09;6243015;28;20728;-53
2023/07/07 05:53:51;;;;;;;5.13;4.63;;;;;;;13.18;100.00;98326.63;6243974;28;20261;-54
2023/07/07 05:56:57;;;;;;;7.87;5.17;;;;;;;13.30;100.00;98326.56;6245873;28;20325;-54
2023/07/07 06:00:01;;;;;;;5.47;4.83;;;;;;;13.42;100.00;98329.97;6245658;28;20227;-53
2023/07/07 06:03:13;;;;;;;9.07;5.30;;;;;;;13.35;100.00;98294.56;6245052;28;21145;-54
2023/07/07 06:06:15;;;;;;;7.87;5.03;;;;;;;13.72;100.00;98331.50;6245800;28;20306;-54
2023/07/07 06:09:18;;;;;;;5.83;5.07;;;;;;;13.86;100.00;98330.09;6243732;28;20779;-54
2023/07/07 06:12:20;;;;;;;6.00;4.87;;;;;;;13.97;100.00;98331.84;6243028;28;20317;-52
2023/07/07 06:15:22;;;;;;;6.53;5.30;;;;;;;14.05;100.00;98315.34;6243699;28;20223;-54
2023/07/07 06:18:24;;;;;;;7.37;4.50;;;;;;;14.30;100.00;98335.50;6243485;28;20223;-54
2023/07/07 06:21:26;;;;;;;5.67;4.50;;;;;;;14.48;100.00;98334.38;6245758;28;20234;-55
2023/07/07 06:24:29;;;;;;;7.10;5.43;;;;;;;14.64;99.14;98339.66;6243543;28;20223;-52
2023/07/07 06:27:31;;;;;;;6.37;4.40;;;;;;;14.87;98.79;98345.78;6244255;28;20740;-54
2023/07/07 06:30:33;;;;;;;7.63;4.43;;;;;;;15.10;97.94;98342.00;6243691;28;20700;-55
2023/07/07 06:33:36;;;;;;;5.23;4.73;;;;;;;15.36;96.57;98345.69;6242308;28;20219;-55
2023/07/07 06:36:38;;;;;;;7.93;4.20;;;;;;;15.61;94.78;98343.22;6244246;28;20794;-54
2023/07/07 06:39:40;;;;;;;4.70;4.03;;;;;;;15.52;93.72;98287.53;6245414;28;20573;-55
2023/07/07 06:42:43;;;;;;;5.83;4.27;;;;;;;16.13;92.68;98339.00;6242840;28;20622;-54
2023/07/07 06:45:53;;;;;;;7.07;4.33;;;;;;;16.40;91.30;98341.53;6243029;28;20304;-55
2023/07/07 06:48:56;;;;;;;4.60;3.90;;;;;;;16.59;90.01;98344.53;6244104;28;20759;-55
2023/07/07 06:51:58;;;;;;;4.20;3.80;;;;;;;16.80;88.41;98353.50;6242504;28;20238;-55
2023/07/07 06:55:01;;;;;;;8.47;3.83;;;;;;;17.01;87.31;98352.50;6243273;28;20227;-55
2023/07/07 06:58:03;;;;;;;5.80;3.90;;;;;;;17.19;85.58;98337.69;6246106;28;20686;-55
2023/07/07 07:01:07;;;;;;;6.03;3.90;;;;;;;17.42;84.81;98350.63;6240503;28;20690;-56
2023/07/07 07:04:09;;;;;;;5.37;4.10;;;;;;;17.58;82.47;98353.31;6242918;28;20251;-55
2023/07/07 07:07:11;;;;;;;6.47;3.80;;;;;;;17.68;80.81;98354.13;6238391;28;20606;-52
2023/07/07 07:10:13;;;;;;;5.73;3.50;;;;;;;17.67;80.50;98340.94;6241070;28;20232;-55
2023/07/07 07:13:15;;;;;;;6.13;4.00;;;;;;;17.96;80.85;98368.94;6243350;28;20245;-54
2023/07/07 07:16:18;;;;;;;3.97;3.50;;;;;;;18.08;76.78;98367.81;6241128;28;20235;-57
2023/07/07 07:19:20;;;;;;;4.77;4.10;;;;;;;18.23;76.13;98365.91;6243187;28;20772;-43
2023/07/07 07:22:22;;;;;;;5.33;3.60;;;;;;;18.31;74.63;98357.25;6241433;28;20230;-43
2023/07/07 07:25:24;;;;;;;5.70;3.80;;;;;;;18.26;72.47;98346.47;6240530;28;20960;-44
2023/07/07 07:28:26;;;;;;;5.40;3.20;;;;;;;18.48;70.08;98369.63;6241170;28;20262;-44
2023/07/07 07:31:29;;;;;;;3.97;3.37;;;;;;;18.57;62.35;98370.66;6245943;28;20779;-45
2023/07/07 07:34:32;;;;;;;4.50;3.30;;;;;;;18.82;65.92;98369.75;6239731;28;20239;-42
2023/07/07 07:37:38;;;;;;;4.43;3.23;;;;;;;18.93;64.90;98373.19;6242270;28;20235;-45
2023/07/07 07:40:40;;;;;;;6.73;3.50;;;;;;;18.98;64.90;98367.75;6241860;28;20229;-44
2023/07/07 07:43:42;;;;;;;5.73;3.23;;;;;;;19.04;65.04;98377.44;6243395;28;20313;-43
2023/07/07 07:46:47;;;;;;;4.60;3.30;;;;;;;19.15;64.84;98386.28;6242095;28;20262;-44
2023/07/07 07:49:49;;;;;;;3.80;3.13;;;;;;;19.23;63.94;98383.00;6243523;28;20377;-45
2023/07/07 07:52:51;;;;;;;5.23;3.33;;;;;;;19.23;64.03;98373.00;6246380;28;20231;-44
2023/07/07 07:55:53;;;;;;;5.20;3.50;;;;;;;19.40;65.95;98390.69;6243640;28;20234;-43
2023/07/07 07:58:56;;;;;;;3.93;3.37;;;;;;;19.44;65.82;98389.84;6241158;28;20234;-45
2023/07/07 08:01:58;;;;;;;4.73;3.70;;;;;;;19.52;66.63;98400.06;6239510;28;20241;-43
2023/07/07 08:05:01;;;;;;;5.30;3.20;;;;;;;19.62;64.82;98393.81;6243494;28;20226;-44
2023/07/07 08:08:03;;;;;;;5.17;3.43;;;;;;;19.66;63.77;98378.66;6239639;28;20251;-45
2023/07/07 08:11:05;;;;;;;3.97;3.17;;;;;;;19.92;51.51;98392.72;6229587;28;20719;-44
2023/07/07 08:14:14;;;;;;;6.57;3.57;;;;;;;19.80;50.36;98317.41;6240330;28;20230;-44
2023/07/07 08:17:17;;;;;;;4.00;3.30;;;;;;;20.47;45.77;98398.66;6239823;28;20233;-44
2023/07/07 08:20:19;;;;;;;4.83;3.20;;;;;;;20.54;50.28;98382.91;6240365;28;20227;-45
2023/07/07 08:23:22;;;;;;;5.00;3.50;;;;;;;20.58;57.07;98402.88;6242914;28;20242;-43
2023/07/07 08:26:24;;;;;;;5.63;3.13;;;;;;;20.59;59.35;98409.09;6240041;28;20233;-44
2023/07/07 08:29:27;;;;;;;4.83;3.07;;;;;;;20.57;54.47;98385.00;6242012;28;20265;-43
2023/07/07 08:32:30;;;;;;;5.70;3.13;;;;;;;20.32;51.08;98314.94;6240219;28;20239;-42
2023/07/07 08:35:32;;;;;;;4.57;3.37;;;;;;;20.93;53.71;98403.50;6238089;28;20227;-43
2023/07/07 08:38:34;;;;;;;3.07;2.50;;;;;;;20.93;54.97;98411.63;6242039;28;20223;-45
2023/07/07 08:41:36;;;;;;;5.47;3.17;;;;;;;20.86;55.77;98400.38;6240160;28;20741;-44
2023/07/07 08:44:40;;;;;;;4.53;3.30;;;;;;;21.03;51.71;98400.69;6241229;28;20228;-42
2023/07/07 08:48:37;;;;;;;4.00;3.23;;;;;;;21.11;56.54;98404.63;6243343;28;20269;-43
2023/07/07 08:51:45;;;;;;;3.70;3.10;;;;;;;21.12;53.69;98398.09;6256000;28;20258;-43
2023/07/07 08:54:50;;;;;;;5.33;3.10;;;;;;;21.44;50.61;98410.16;6250577;28;20257;-43
2023/07/07 08:58:03;;;;;;;3.47;2.90;;;;;;;21.44;45.87;98388.47;6263524;28;20249;-43
2023/07/07 09:01:28;;;;;;;7.07;3.13;;;;;;;21.68;44.70;98421.69;6260981;28;20226;-44
2023/07/07 09:04:47;;;;;;;4.53;2.87;;;;;;;21.82;43.14;98413.59;6264049;28;20248;-44
2023/07/07 09:08:04;;;;;;;3.10;2.67;;;;;;;21.88;42.60;98405.09;6257674;28;20254;-44
2023/07/07 09:11:54;;;;;;;3.87;3.20;;;;;;;21.83;46.76;98407.06;6262666;28;20235;-42
2023/07/07 09:14:59;;;;;;;4.13;3.10;;;;;;;22.05;41.24;98403.69;6257463;28;20231;-44
2023/07/07 09:18:11;;;;;;;5.17;3.13;;;;;;;22.18;40.33;98413.81;6263865;28;20230;-45
2023/07/07 09:21:26;;;;;;;3.80;2.90;;;;;;;22.26;47.08;98413.09;6269956;28;20203;-44
2023/07/07 09:24:39;;;;;;;6.57;2.83;;;;;;;22.39;40.11;98404.16;6261705;28;20239;-44
2023/07/07 09:28:02;;;;;;;4.80;3.43;;;;;;;22.39;40.78;98409.59;6244414;28;20310;-43
2023/07/07 09:31:25;;;;;;;3.87;3.40;;;;;;;22.45;43.11;98409.50;6244642;28;20227;-45
2023/07/07 09:34:29;;;;;;;4.00;3.20;;;;;;;22.39;47.08;98400.66;6247792;28;20227;-44
2023/07/07 09:38:17;;;;;;;5.53;3.63;;;;;;;22.42;41.76;98393.84;6245724;28;20421;-44
2023/07/07 09:41:24;;;;;;;3.80;3.20;;;;;;;22.49;42.85;98397.75;6259650;28;20215;-44
2023/07/07 09:44:43;;;;;;;5.57;3.80;;;;;;;22.85;40.49;98400.50;6246266;28;20273;-45
2023/07/07 09:48:06;;;;;;;5.00;3.70;;;;;;;22.89;40.96;98406.19;6246869;28;20227;-44
2023/07/07 09:51:34;;;;;;;6.80;3.33;;;;;;;22.88;39.14;98405.38;6242288;28;20354;-46
2023/07/07 09:54:37;;;;;;;8.53;3.57;;;;;;;22.81;40.00;98399.53;6243098;28;20224;-45
2023/07/07 09:57:46;;;;;;;5.93;3.70;;;;;;;22.79;45.57;98401.75;6247097;28;20310;-45
2023/07/07 10:00:55;;;;;;;6.30;3.42;;;;;;;22.78;42.46;98402.06;6241262;28;20620;-43
2023/07/07 10:04:00;;;;;;;5.22;3.17;;;;;;;22.88;39.97;98401.84;6244638;28;20254;-44
2023/07/07 10:07:09;;;;;;;5.97;3.47;;;;;;;22.92;39.85;98402.88;6244015;28;20231;-44
2023/07/07 10:10:16;;;;;;;5.60;3.70;;;;;;;22.91;41.68;98403.97;6246713;28;20233;-44
2023/07/07 10:13:18;;;;;;;3.75;2.95;;;;;;;22.98;42.67;98392.69;6243603;28;20702;-44
2023/07/07 10:16:32;;;;;;;4.47;3.08;;;;;;;23.12;42.58;98398.91;6240395;28;20241;-43
2023/07/07 10:19:41;;;;;;;4.57;3.75;;;;;;;23.37;38.30;98392.88;6241501;28;20312;-45
2023/07/07 10:22:43;;;;;;;5.40;3.28;;;;;;;23.36;35.61;98393.19;6247956;28;20231;-43
2023/07/07 10:25:46;;;;;;;5.20;3.40;;;;;;;23.25;38.36;98395.34;6243148;28;20239;-44
2023/07/07 10:28:49;;;;;;;5.00;3.50;;;;;;;23.07;43.40;98394.38;6245132;28;20841;-42
2023/07/07 10:31:52;;;;;;;3.05;2.72;;;;;;;22.87;46.91;98368.44;6242514;28;20236;-44
2023/07/07 10:34:58;;;;;;;3.28;2.75;;;;;;;22.99;49.85;98403.25;6244928;28;20231;-45
2023/07/07 10:38:03;;;;;;;3.85;3.00;;;;;;;23.17;41.13;98401.50;6243746;28;20231;-44
2023/07/07 10:41:07;;;;;;;5.55;3.10;;;;;;;23.19;41.08;98399.25;6243496;28;20694;-44
2023/07/07 10:44:09;;;;;;;4.80;3.13;;;;;;;22.99;42.51;98373.34;6243294;28;20245;-43
2023/07/07 10:47:14;;;;;;;7.50;3.28;;;;;;;22.92;43.98;98392.78;6240241;28;20243;-44
2023/07/07 10:50:32;;;;;;;6.20;3.38;;;;;;;22.89;41.05;98389.88;6237420;28;20228;-44
2023/07/07 10:53:47;;;;;;;5.82;2.75;;;;;;;23.07;40.34;98383.50;6243953;28;20768;-42
2023/07/07 10:56:56;;;;;;;3.83;2.60;;;;;;;23.10;45.56;98377.47;6247647;28;20234;-45
2023/07/07 11:00:23;;;;;;;5.22;3.08;;;;;;;23.23;48.36;98380.44;6244913;28;20223;-44
2023/07/07 11:03:59;;;;;;;5.38;2.97;;;;;;;23.33;42.59;98377.47;6241627;28;20307;-45
2023/07/07 11:07:32;;;;;;;6.03;3.17;;;;;;;23.72;40.00;98376.81;6248013;28;20231;-45
2023/07/07 11:10:55;;;;;;;3.78;2.85;;;;;;;23.81;40.39;98376.88;6239458;28;20228;-44
2023/07/07 11:14:31;;;;;;;4.57;3.40;;;;;;;23.93;38.78;98375.19;6243983;28;20215;-46
2023/07/07 11:18:14;;;;;;;6.03;2.70;;;;;;;24.10;39.85;98377.19;6241000;28;20733;-46
2023/07/07 11:21:29;;;;;;;3.75;2.58;;;;;;;24.07;41.65;98366.94;6260791;28;20346;-45
2023/07/07 11:24:43;;;;;;;3.80;3.08;;;;;;;24.08;36.15;98365.00;6262058;28;20239;-44
2023/07/07 11:28:04;;;;;;;4.35;2.88;;;;;;;24.30;35.42;98364.16;6240795;28;20234;-44
2023/07/07 11:31:31;;;;;;;3.05;2.35;;;;;;;24.29;35.37;98373.44;6244901;28;20764;-44
2023/07/07 11:34:51;;;;;;;5.70;2.90;;;;;;;24.38;33.00;98360.66;6241942;28;20754;-46
2023/07/07 11:38:08;;;;;;;3.85;2.90;;;;;;;24.43;36.26;98372.25;6242774;28;20285;-47
2023/07/07 11:41:31;;;;;;;3.50;2.67;;;;;;;24.54;32.83;98375.47;6242526;28;20224;-43
2023/07/07 11:44:51;;;;;;;3.38;2.60;;;;;;;24.54;31.27;98361.84;6229046;28;20216;-48
2023/07/07 11:48:29;;;;;;;2.70;2.38;;;;;;;24.58;33.26;98362.00;6246758;28;20242;-48
2023/07/07 11:51:50;;;;;;;3.78;2.85;;;;;;;24.59;33.50;98361.72;6237751;28;20707;-50
2023/07/07 11:55:29;;;;;;;2.92;2.60;;;;;;;24.61;34.01;98358.66;6240742;28;20604;-46
2023/07/07 11:58:50;;;;;;;3.40;2.53;;;;;;;24.64;36.06;98349.88;6239143;28;20366;-48
2023/07/07 12:01:57;;;;;;;6.18;2.65;;;;;;;24.80;34.96;98353.72;6240333;28;20374;-50
2023/07/07 12:05:01;;;;;;;4.35;2.38;;;;;;;24.67;36.58;98311.84;6241962;28;20235;-49
2023/07/07 12:08:17;;;;;;;3.92;2.58;;;;;;;24.68;36.96;98318.94;6246034;28;20231;-50
2023/07/07 12:11:21;;;;;;;3.67;2.42;;;;;;;24.86;33.32;98338.81;6239267;28;20259;-49
2023/07/07 12:14:51;;;;;;;4.07;2.60;;;;;;;24.78;36.00;98339.63;6238419;28;20892;-46
2023/07/07 12:18:14;;;;;;;3.20;2.50;;;;;;;24.84;32.71;98343.78;6243132;28;20231;-49
2023/07/07 12:21:23;;;;;;;3.17;2.40;;;;;;;25.03;30.39;98342.69;6240642;28;20220;-45
2023/07/07 12:24:39;;;;;;;3.88;2.63;;;;;;;25.02;30.62;98344.59;6242955;28;20604;-45
2023/07/07 12:27:51;;;;;;;2.58;2.15;;;;;;;25.08;29.86;98339.84;6240040;28;20309;-47
2023/07/07 12:30:53;;;;;;;4.35;2.60;;;;;;;25.17;29.64;98337.88;6241729;28;20231;-48
2023/07/07 12:33:56;;;;;;;3.53;2.67;;;;;;;25.13;30.54;98309.69;6241672;28;20243;-48
2023/07/07 12:37:00;;;;;;;4.47;2.88;;;;;;;25.28;29.63;98311.91;6242836;28;20231;-49
2023/07/07 12:40:15;;;;;;;8.38;2.60;;;;;;;25.50;30.54;98334.66;6240799;28;20227;-49
2023/07/07 12:43:27;;;;;;;5.60;3.03;;;;;;;25.46;29.67;98318.13;6239988;28;20223;-46
2023/07/07 12:46:32;;;;;;;2.50;2.00;;;;;;;25.58;30.93;98333.84;6242651;28;20237;-49
2023/07/07 12:49:38;;;;;;;3.95;2.97;;;;;;;25.62;27.63;98334.81;6243251;28;20239;-48
2023/07/07 12:52:44;;;;;;;2.47;2.13;;;;;;;25.55;27.55;98334.50;6240691;28;20369;-46
2023/07/07 12:56:13;;;;;;;2.92;2.42;;;;;;;25.51;29.84;98326.16;6242651;28;20281;-50
2023/07/07 12:59:36;;;;;;;4.68;2.33;;;;;;;25.35;32.85;98328.59;6243519;28;20235;-48
2023/07/07 13:02:56;;;;;;;2.42;2.20;;;;;;;25.14;31.23;98322.19;6239159;28;20224;-46
2023/07/07 13:06:00;;;;;;;2.65;2.45;;;;;;;25.11;30.75;98315.44;6237254;28;20714;-50
2023/07/07 13:09:17;;;;;;;3.83;2.22;;;;;;;24.95;34.65;98322.47;6217811;28;20234;-50
2023/07/07 13:12:39;;;;;;;3.17;2.00;;;;;;;24.75;36.88;98320.38;6238884;28;20713;-50
2023/07/07 13:15:41;;;;;;;2.63;2.42;;;;;;;25.02;33.65;98322.00;6245266;28;20393;-50
2023/07/07 13:18:44;;;;;;;2.60;2.40;;;;;;;25.19;29.97;98328.28;6240964;28;20235;-49
2023/07/07 13:21:49;;;;;;;7.30;6.53;;;;;;;25.25;30.99;98326.19;6239341;28;20232;-50
2023/07/07 13:24:56;;;;;;;4.07;2.80;;;;;;;25.18;29.50;98325.88;6239094;28;20235;-48
2023/07/07 13:27:58;;;;;;;4.55;2.42;;;;;;;25.07;30.12;98327.31;6240397;28;20228;-50
2023/07/07 13:31:00;;;;;;;3.03;2.50;;;;;;;25.00;32.73;98329.69;6239995;28;20231;-49
2023/07/07 13:34:02;;;;;;;2.88;2.20;;;;;;;24.91;36.45;98319.59;6228416;28;20239;-49
2023/07/07 13:37:07;;;;;;;2.38;2.17;;;;;;;24.87;36.74;98318.63;6245069;28;20235;-48
2023/07/07 13:40:15;;;;;;;2.88;2.47;;;;;;;24.93;33.66;98316.56;6240815;28;20242;-49
2023/07/07 13:43:29;;;;;;;3.60;2.83;;;;;;;25.24;30.60;98313.69;6240524;28;20231;-49
2023/07/07 13:46:31;;;;;;;4.13;2.83;;;;;;;25.09;32.99;98314.19;6240156;28;20239;-58
2023/07/07 13:49:33;;;;;;;5.55;3.10;;;;;;;25.01;32.21;98313.00;6242317;28;20314;-59
2023/07/07 13:52:42;;;;;;;3.25;2.53;;;;;;;25.11;30.54;98306.47;6245568;28;20239;-61
2023/07/07 13:55:48;;;;;;;3.10;2.22;;;;;;;25.06;35.38;98306.59;6241852;28;20757;-57
2023/07/07 13:58:52;;;;;;;4.60;2.65;;;;;;;25.02;35.12;98311.88;6279475;28;20233;-56
2023/07/07 14:01:55;;;;;;;3.83;2.58;;;;;;;25.16;33.91;98312.56;6244823;28;20231;-56
2023/07/07 14:05:08;;;;;;;5.95;2.50;;;;;;;25.04;40.40;98309.66;6245454;28;20238;-56
2023/07/07 14:08:20;;;;;;;2.35;2.10;;;;;;;24.97;40.29;98309.31;6246699;28;20431;-56
2023/07/07 14:11:25;;;;;;;3.33;2.30;;;;;;;25.01;36.65;98306.75;6242727;28;20641;-57
2023/07/07 14:14:27;;;;;;;3.33;2.47;;;;;;;25.07;32.32;98300.84;6244045;28;20227;-56
2023/07/07 14:17:37;;;;;;;2.63;2.10;;;;;;;25.01;33.94;98296.66;6244645;28;20250;-56
2023/07/07 14:20:45;;;;;;;3.67;2.45;;;;;;;24.90;35.09;98287.19;6238342;28;20317;-58
2023/07/07 14:23:47;;;;;;;3.30;2.50;;;;;;;24.74;39.71;98303.22;6240454;28;20236;-57
2023/07/07 14:26:50;;;;;;;3.95;2.78;;;;;;;24.62;37.65;98292.94;6243568;28;20227;-56
2023/07/07 14:29:54;;;;;;;3.28;2.53;;;;;;;24.42;42.15;98297.06;6244262;28;20743;-56
2023/07/07 14:33:00;;;;;;;4.03;2.80;;;;;;;24.22;40.52;98291.41;6246238;28;20231;-57
2023/07/07 14:36:14;;;;;;;2.67;2.47;;;;;;;24.04;40.80;98296.78;6219396;28;20235;-57
2023/07/07 14:39:22;;;;;;;4.43;2.70;;;;;;;24.34;35.34;98291.59;6221108;28;20705;-57
2023/07/07 14:42:26;;;;;;;4.18;2.92;;;;;;;24.69;29.62;98281.59;6218585;28;20216;-57